createdAt,value
2023-02-11T00:03:34.002Z,2.80
2023-02-11T00:08:39.810Z,2.60
2023-02-11T00:13:46.445Z,2.60
2023-02-11T00:18:53.441Z,2.50
2023-02-11T00:24:01.459Z,2.60
2023-02-11T00:29:07.419Z,2.60
2023-02-11T00:34:12.549Z,2.50
2023-02-11T00:39:17.721Z,2.50
2023-02-11T00:44:23.494Z,2.60
2023-02-11T00:49:28.618Z,2.70
2023-02-11T00:54:33.752Z,2.70
2023-02-11T00:59:40.911Z,2.70
2023-02-11T01:04:46.015Z,2.70
2023-02-11T01:09:51.209Z,2.60
2023-02-11T01:14:56.408Z,2.70
2023-02-11T01:20:05.016Z,2.70
2023-02-11T01:25:11.250Z,2.70
2023-02-11T01:30:16.562Z,2.70
2023-02-11T01:35:21.758Z,2.70
2023-02-11T01:40:27.027Z,2.70
2023-02-11T01:45:48.151Z,2.70
2023-02-11T01:50:56.568Z,2.60
2023-02-11T01:56:21.370Z,2.70
2023-02-11T02:01:27.726Z,2.70
2023-02-11T02:06:55.389Z,2.70
2023-02-11T02:12:00.690Z,2.70
2023-02-11T02:17:05.957Z,2.70
2023-02-11T02:22:42.219Z,2.60
2023-02-11T02:28:07.551Z,2.70
2023-02-11T02:33:22.643Z,2.70
2023-02-11T02:38:40.206Z,2.60
2023-02-11T02:43:47.749Z,2.70
2023-02-11T02:48:54.274Z,2.80
2023-02-11T02:54:35.980Z,2.70
2023-02-11T03:00:18.587Z,2.70
2023-02-11T03:05:26.890Z,2.70
2023-02-11T03:10:35.240Z,2.80
2023-02-11T03:15:43.444Z,2.70
2023-02-11T03:20:51.584Z,2.70
2023-02-11T03:26:05.969Z,2.70
2023-02-11T03:31:20.172Z,2.70
2023-02-11T03:36:49.218Z,2.70
2023-02-11T03:41:56.974Z,2.70
2023-02-11T03:47:04.154Z,2.60
2023-02-11T03:52:12.123Z,2.60
2023-02-11T03:57:17.444Z,2.60
2023-02-11T04:02:25.433Z,2.60
2023-02-11T04:07:31.058Z,2.60
2023-02-11T04:12:36.264Z,2.70
2023-02-11T04:17:41.533Z,2.60
2023-02-11T04:22:46.803Z,2.60
2023-02-11T04:27:52.054Z,2.70
2023-02-11T04:32:58.735Z,2.70
2023-02-11T04:38:03.983Z,2.70
2023-02-11T04:43:09.174Z,2.60
2023-02-11T04:48:14.369Z,2.60
2023-02-11T04:53:19.968Z,2.60
2023-02-11T04:58:25.195Z,2.70
2023-02-11T05:03:30.418Z,2.70
2023-02-11T05:08:35.692Z,2.60
2023-02-11T05:13:40.905Z,2.70
2023-02-11T05:18:46.898Z,2.60
2023-02-11T05:23:52.091Z,2.60
2023-02-11T05:28:57.724Z,2.50
2023-02-11T05:34:04.210Z,2.70
2023-02-11T05:39:09.411Z,2.60
2023-02-11T05:44:14.675Z,2.60
2023-02-11T05:49:20.006Z,2.50
2023-02-11T05:54:27.411Z,2.50
2023-02-11T05:59:32.613Z,2.50
2023-02-11T06:04:38.553Z,2.40
2023-02-11T06:09:43.933Z,2.40
2023-02-11T06:14:49.249Z,2.30
2023-02-11T06:19:54.393Z,2.30
2023-02-11T06:25:02.084Z,2.20
2023-02-11T06:30:07.728Z,2.20
2023-02-11T06:35:14.011Z,2.20
2023-02-11T06:40:19.280Z,2.20
2023-02-11T06:45:24.576Z,2.20
2023-02-11T06:50:29.849Z,2.20
2023-02-11T06:55:36.736Z,2.20
2023-02-11T07:00:41.840Z,2.20
2023-02-11T07:05:47.062Z,2.20
2023-02-11T07:10:52.834Z,2.20
2023-02-11T07:15:58.153Z,2.30
2023-02-11T07:21:08.146Z,2.30
2023-02-11T07:26:16.429Z,2.30
2023-02-11T07:31:27.626Z,2.40
2023-02-11T07:36:33.274Z,2.40
2023-02-11T07:41:38.890Z,2.50
2023-02-11T07:46:45.441Z,2.50
2023-02-11T07:51:51.533Z,2.60
2023-02-11T07:56:57.305Z,2.60
2023-02-11T08:02:02.929Z,2.70
2023-02-11T08:07:08.305Z,2.70
2023-02-11T08:12:13.931Z,2.80
2023-02-11T08:17:19.137Z,2.90
2023-02-11T08:22:24.323Z,2.90
2023-02-11T08:27:29.882Z,3.00
2023-02-11T08:32:36.169Z,3.00
2023-02-11T08:37:41.444Z,3.10
2023-02-11T08:42:46.803Z,3.10
2023-02-11T08:47:52.217Z,3.20
2023-02-11T08:52:57.568Z,3.30
2023-02-11T08:58:03.284Z,3.30
2023-02-11T09:03:08.410Z,3.30
2023-02-11T09:08:15.113Z,3.30
2023-02-11T09:13:20.659Z,3.30
2023-02-11T09:18:25.871Z,3.30
2023-02-11T09:23:32.178Z,3.40
2023-02-11T09:28:37.727Z,3.40
2023-02-11T09:33:46.314Z,3.40
2023-02-11T09:38:51.710Z,3.40
2023-02-11T09:44:00.184Z,3.40
2023-02-11T09:49:06.798Z,3.40
2023-02-11T09:54:23.661Z,3.50
2023-02-11T09:59:29.153Z,3.40
2023-02-11T10:04:55.061Z,3.40
2023-02-11T10:10:15.035Z,3.40
2023-02-11T10:15:32.118Z,3.50
2023-02-11T10:20:59.548Z,3.60
2023-02-11T10:26:06.681Z,3.60
2023-02-11T10:31:18.269Z,3.60
2023-02-11T10:36:26.684Z,3.60
2023-02-11T10:41:40.082Z,3.70
2023-02-11T10:46:45.383Z,3.80
2023-02-11T10:51:50.576Z,3.80
2023-02-11T10:56:58.831Z,3.90
2023-02-11T11:02:19.543Z,4.00
2023-02-11T11:07:30.552Z,4.00
2023-02-11T11:12:49.915Z,4.20
2023-02-11T11:18:23.685Z,4.20
2023-02-11T11:23:25.201Z,4.20
2023-02-11T11:28:33.032Z,4.20
2023-02-11T11:33:39.968Z,4.20
2023-02-11T11:38:50.969Z,4.20
2023-02-11T11:44:01.603Z,4.10
2023-02-11T11:49:12.490Z,4.20
2023-02-11T11:54:20.807Z,4.30
2023-02-11T11:59:26.179Z,4.30
2023-02-11T12:04:59.102Z,4.30
2023-02-11T12:10:23.597Z,4.30
2023-02-11T12:15:34.540Z,4.40
2023-02-11T12:21:01.364Z,4.40
2023-02-11T12:26:18.402Z,4.50
2023-02-11T12:31:35.666Z,4.50
2023-02-11T12:36:59.271Z,4.50
2023-02-11T12:42:37.881Z,4.60
2023-02-11T12:48:13.180Z,4.60
2023-02-11T12:53:26.883Z,4.60
2023-02-11T12:58:44.557Z,4.60
2023-02-11T13:03:48.178Z,4.70
2023-02-11T13:08:57.040Z,4.70
2023-02-11T13:14:19.483Z,4.70
2023-02-11T13:19:36.575Z,4.80
2023-02-11T13:25:07.953Z,4.90
2023-02-11T13:30:34.859Z,4.90
2023-02-11T13:35:42.547Z,4.90
2023-02-11T13:41:08.413Z,5.00
2023-02-11T13:46:16.250Z,5.00
2023-02-11T13:51:39.411Z,5.00
2023-02-11T13:56:46.325Z,5.10
2023-02-11T14:02:21.006Z,5.20
2023-02-11T14:07:52.104Z,5.10
2023-02-11T14:13:26.156Z,5.10
2023-02-11T14:18:39.829Z,5.20
2023-02-11T14:40:00.014Z,5.10
2023-02-11T14:45:08.523Z,5.20
2023-02-11T14:50:24.696Z,5.20
2023-02-11T14:55:33.379Z,5.10
2023-02-11T15:00:40.252Z,5.20
2023-02-11T15:05:45.729Z,5.10
2023-02-11T15:10:51.469Z,5.10
2023-02-11T15:16:10.551Z,5.10
2023-02-11T15:21:24.423Z,5.00
2023-02-11T15:26:32.293Z,5.00
2023-02-11T15:31:37.638Z,5.00
2023-02-11T15:36:43.016Z,5.00
2023-02-11T15:41:48.906Z,5.00
2023-02-11T15:46:54.235Z,5.00
2023-02-11T15:51:59.697Z,5.00
2023-02-11T15:57:08.203Z,5.00
2023-02-11T16:02:22.426Z,4.90
2023-02-11T16:07:47.323Z,4.90
2023-02-11T16:13:01.778Z,4.90
2023-02-11T16:18:16.316Z,4.90
2023-02-11T16:23:24.597Z,4.90
2023-02-11T16:28:30.684Z,4.90
2023-02-11T16:33:35.989Z,4.90
2023-02-11T16:38:42.207Z,4.90
2023-02-11T16:43:47.720Z,4.90
2023-02-11T16:48:53.105Z,4.90
2023-02-11T16:53:58.358Z,4.90
2023-02-11T16:59:04.852Z,4.90
2023-02-11T17:04:13.264Z,4.80
2023-02-11T17:09:21.951Z,4.90
2023-02-11T17:14:27.547Z,4.90
2023-02-11T17:19:33.725Z,4.90
2023-02-11T17:24:39.313Z,4.90
2023-02-11T17:29:44.877Z,4.90
2023-02-11T17:34:50.409Z,4.90
2023-02-11T17:39:55.813Z,4.90
2023-02-11T17:45:02.407Z,4.90
2023-02-11T17:50:08.717Z,4.90
2023-02-11T17:55:14.500Z,5.00
2023-02-11T18:00:20.605Z,5.00
2023-02-11T18:05:27.640Z,5.00
2023-02-11T18:10:35.129Z,4.90
2023-02-11T18:15:40.629Z,4.90
2023-02-11T18:20:47.756Z,4.90
2023-02-11T18:25:53.751Z,4.90
2023-02-11T18:31:00.685Z,4.90
2023-02-11T18:36:12.185Z,4.80
2023-02-11T18:41:17.670Z,4.90
2023-02-11T18:46:23.153Z,4.90
2023-02-11T18:51:30.683Z,4.90
2023-02-11T18:56:36.163Z,4.90
2023-02-11T19:01:43.577Z,4.80
2023-02-11T19:06:50.442Z,4.70
2023-02-11T19:11:57.365Z,4.60
2023-02-11T19:17:05.983Z,4.60
2023-02-11T19:22:11.507Z,4.60
2023-02-11T19:27:16.832Z,4.60
2023-02-11T19:32:22.418Z,4.70
2023-02-11T19:37:27.924Z,4.70
2023-02-11T19:42:33.425Z,4.70
2023-02-11T19:47:39.311Z,4.70
2023-02-11T19:52:44.745Z,4.60
2023-02-11T19:57:50.265Z,4.60
2023-02-11T20:02:55.900Z,4.60
2023-02-11T20:08:01.466Z,4.60
2023-02-11T20:13:07.103Z,4.60
2023-02-11T20:18:12.546Z,4.50
2023-02-11T20:23:18.453Z,4.50
2023-02-11T20:28:24.568Z,4.50
2023-02-11T20:33:32.758Z,4.50
2023-02-11T20:38:38.512Z,4.50
2023-02-11T20:43:49.114Z,4.50
2023-02-11T20:48:57.092Z,4.40
2023-02-11T20:54:02.806Z,4.40
2023-02-11T20:59:08.830Z,4.30
2023-02-11T21:04:20.033Z,4.20
2023-02-11T21:09:28.191Z,4.00
2023-02-11T21:14:34.329Z,3.80
2023-02-11T21:19:40.401Z,3.70
2023-02-11T21:24:46.575Z,3.60
2023-02-11T21:29:54.432Z,3.50
2023-02-11T21:35:01.281Z,3.40
2023-02-11T21:40:06.177Z,3.30
2023-02-11T21:45:13.303Z,3.20
2023-02-11T21:50:19.434Z,3.00
2023-02-11T21:55:24.915Z,2.90
2023-02-11T22:00:31.002Z,2.80
2023-02-11T22:05:36.407Z,2.80
2023-02-11T22:10:41.794Z,2.60
2023-02-11T22:15:46.999Z,2.40
2023-02-11T22:21:10.882Z,2.40
2023-02-11T22:26:19.155Z,2.30
2023-02-11T22:31:30.483Z,2.20
2023-02-11T22:36:38.835Z,2.10
2023-02-11T22:41:46.263Z,2.00
2023-02-11T22:46:52.887Z,1.90
2023-02-11T22:51:59.074Z,1.90
2023-02-11T22:57:04.431Z,1.80
2023-02-11T23:02:10.269Z,1.70
2023-02-11T23:07:15.833Z,1.50
2023-02-11T23:12:21.104Z,1.30
2023-02-11T23:17:28.080Z,1.20
2023-02-11T23:22:34.357Z,1.10
2023-02-11T23:27:39.984Z,0.90
2023-02-11T23:32:45.294Z,0.80
2023-02-11T23:37:52.734Z,0.60
2023-02-11T23:42:58.034Z,0.60
2023-02-11T23:48:03.372Z,0.40
2023-02-11T23:53:09.001Z,0.40
2023-02-11T23:58:15.386Z,0.40
